Loring, Montana
Current Conditions -  °F | °C
As of 7:53 AM on Saturday 22 Nov 2014 (Local Time) from KGGW Reporting Station
Overcast Overcast  
Wind Chill: 26°   Ceiling: 9000
Heat Index: 35°   Visibility: 10mi
Dew Point: 29°   Wind: 15mph
Humidity: 78%   Direction: 110°ESE
Pressure: 29.27"   Gusts: NA
Location:  48.79°N, 107.86°W
Report Text: KGGW 221453Z AUTO 11013KT 10SM OVC090 02/M02 A2927 RMK AO2 SLP932 T00171017 58028
Loading
Personal Weather Stations






























Interactive Weather Map New forecast layout! Learn more

10-Day Weather Forecast

Advertisements
Track Severe Weather on mobile